Weerstation

Weerstation

Ons weerstation streamt live data naar onze server. 

Vliegweer

[Source: ADDS]
METAR
EBBR 150220Z 11003KT CAVOK 05/04 Q1024 NOSIG =
EBBR 142310Z 1500/1606 15005KT 8000 NSC BECMG 1502/1504 4000 BR TEMPO 1504/1509 2000 MIFG PROB30 1504/1509 0500 FG BKN001 BECMG 1510/1512 8000 NSW TEMPO 1521/1606 3000 MIFG BR PROB30 1601/1606 0800 BCFG
TAF
EBBR 142310Z 1500/1606 15005KT 8000 NSC BECMG 1502/1504 4000 BR TEMPO 1504/1509 2000 MIFG PROB30 1504/1509 0500 FG BKN001 BECMG 1510/1512 8000 NSW TEMPO 1521/1606 3000 MIFG BR PROB30 1601/1606 0800 BCFG =

StormCell is een non profit organisatie zonder oogmerk tot sensatie